createdAt,value
2019-04-16T00:02:21.878Z,7.03
2019-04-16T00:04:56.707Z,8.20
2019-04-16T00:07:43.654Z,12.17
2019-04-16T00:10:16.910Z,7.70
2019-04-16T00:13:05.313Z,6.13
2019-04-16T00:15:33.952Z,8.57
2019-04-16T00:18:02.579Z,6.77
2019-04-16T00:20:36.893Z,6.30
2019-04-16T00:23:04.877Z,8.77
2019-04-16T00:25:33.512Z,8.83
2019-04-16T00:28:02.174Z,15.77
2019-04-16T00:30:35.470Z,10.00
2019-04-16T00:33:01.147Z,15.73
2019-04-16T00:35:29.862Z,8.83
2019-04-16T00:37:58.489Z,7.10
2019-04-16T00:40:27.321Z,5.63
2019-04-16T00:42:56.069Z,6.87
2019-04-16T00:45:24.692Z,7.73
2019-04-16T00:47:53.316Z,6.50
2019-04-16T00:50:21.985Z,7.70
2019-04-16T00:52:50.605Z,7.53
2019-04-16T00:55:19.233Z,6.80
2019-04-16T00:57:48.675Z,6.63
2019-04-16T01:00:17.959Z,6.27
2019-04-16T01:02:47.087Z,7.07
2019-04-16T01:05:15.834Z,6.63
2019-04-16T01:07:44.463Z,5.87
2019-04-16T01:10:13.086Z,5.83
2019-04-16T01:12:41.679Z,5.53
2019-04-16T01:15:10.408Z,6.83
2019-04-16T01:17:39.034Z,6.23
2019-04-16T01:20:11.844Z,6.10
2019-04-16T01:22:38.037Z,6.90
2019-04-16T01:25:07.155Z,8.90
2019-04-16T01:27:37.463Z,10.07
2019-04-16T01:30:08.457Z,6.40
2019-04-16T01:32:44.764Z,5.40
2019-04-16T01:38:28.048Z,5.90
2019-04-16T01:41:04.246Z,5.83
2019-04-16T01:43:32.916Z,5.87
2019-04-16T01:46:02.491Z,6.70
2019-04-16T01:48:31.433Z,7.50
2019-04-16T01:51:00.097Z,7.07
2019-04-16T01:53:28.723Z,5.97
2019-04-16T01:55:57.741Z,6.53
2019-04-16T01:58:33.839Z,5.40
2019-04-16T02:01:01.735Z,6.20
2019-04-16T02:03:30.359Z,6.23
2019-04-16T02:05:59.209Z,7.07
2019-04-16T02:08:28.295Z,6.47
2019-04-16T02:10:58.176Z,7.57
2019-04-16T02:13:26.843Z,9.00
2019-04-16T02:15:55.468Z,6.23
2019-04-16T02:18:24.193Z,5.40
2019-04-16T02:20:52.862Z,5.57
2019-04-16T02:23:21.489Z,5.80
2019-04-16T02:25:51.392Z,6.30
2019-04-16T02:28:21.751Z,7.57
2019-04-16T02:30:50.584Z,8.00
2019-04-16T02:33:19.211Z,7.90
2019-04-16T02:35:47.915Z,6.47
2019-04-16T02:38:16.559Z,5.10
2019-04-16T02:40:51.297Z,5.97
2019-04-16T02:43:15.936Z,7.00
2019-04-16T02:45:44.587Z,7.07
2019-04-16T02:48:16.733Z,5.93
2019-04-16T02:50:45.326Z,6.13
2019-04-16T02:53:31.820Z,5.77
2019-04-16T02:56:20.285Z,6.00
2019-04-16T02:58:53.526Z,5.87
2019-04-16T03:01:23.785Z,5.67
2019-04-16T03:03:56.235Z,5.60
2019-04-16T03:06:24.440Z,6.83
2019-04-16T03:08:53.068Z,6.60
2019-04-16T03:11:21.727Z,6.67
2019-04-16T03:13:52.856Z,6.60
2019-04-16T03:16:38.643Z,6.73
2019-04-16T03:19:09.033Z,6.23
2019-04-16T03:21:37.641Z,6.37
2019-04-16T03:24:09.353Z,5.93
2019-04-16T03:26:36.635Z,5.97
2019-04-16T03:29:05.263Z,5.93
2019-04-16T03:31:33.918Z,6.80
2019-04-16T03:34:02.539Z,6.43
2019-04-16T03:36:31.163Z,6.77
2019-04-16T03:38:59.744Z,6.37
2019-04-16T03:41:28.374Z,5.87
2019-04-16T03:43:56.930Z,7.27
2019-04-16T03:46:25.598Z,6.90
2019-04-16T03:48:56.164Z,7.30
2019-04-16T03:51:24.564Z,7.53
2019-04-16T03:53:53.216Z,8.03
2019-04-16T03:56:21.831Z,9.30
2019-04-16T03:58:50.464Z,8.13
2019-04-16T04:01:19.128Z,6.87
2019-04-16T04:03:47.800Z,7.47
2019-04-16T04:06:16.452Z,7.80
2019-04-16T04:08:48.001Z,6.93
2019-04-16T04:11:15.469Z,6.77
2019-04-16T04:13:44.085Z,7.40
2019-04-16T04:16:12.808Z,6.13
2019-04-16T04:18:43.153Z,6.73
2019-04-16T04:21:11.790Z,7.33
2019-04-16T04:23:40.453Z,6.97
2019-04-16T04:26:10.179Z,6.67
2019-04-16T04:28:38.983Z,6.97
2019-04-16T04:31:07.642Z,7.30
2019-04-16T04:36:09.365Z,7.60
2019-04-16T04:38:38.618Z,8.20
2019-04-16T04:41:07.830Z,7.57
2019-04-16T04:43:10.014Z,7.40
2019-04-16T04:43:36.642Z,8.00
2019-04-16T04:46:05.386Z,7.00
2019-04-16T04:48:34.007Z,7.03
2019-04-16T04:51:06.995Z,7.63
2019-04-16T04:53:33.280Z,7.13
2019-04-16T04:56:01.929Z,7.40
2019-04-16T04:58:33.788Z,7.63
2019-04-16T05:01:00.902Z,7.00
2019-04-16T05:03:49.085Z,7.50
2019-04-16T05:06:19.402Z,7.00
2019-04-16T05:08:48.021Z,7.40
2019-04-16T05:11:17.121Z,8.10
2019-04-16T05:13:45.871Z,7.67
2019-04-16T05:16:14.510Z,7.77
2019-04-16T05:18:43.142Z,9.33
2019-04-16T05:21:11.837Z,7.87
2019-04-16T05:23:40.480Z,13.27
2019-04-16T05:26:09.957Z,8.93
2019-04-16T05:28:44.314Z,8.43
2019-04-16T05:31:09.096Z,9.03
2019-04-16T05:33:38.219Z,7.77
2019-04-16T05:36:06.871Z,9.37
2019-04-16T05:38:35.505Z,8.43
2019-04-16T05:41:13.200Z,9.30
2019-04-16T05:43:34.698Z,10.00
2019-04-16T05:46:05.499Z,9.73
2019-04-16T05:48:33.667Z,9.27
2019-04-16T05:51:02.363Z,8.47
2019-04-16T05:53:30.982Z,9.50
2019-04-16T05:56:20.223Z,8.63
2019-04-16T05:58:47.803Z,9.77
2019-04-16T06:01:18.072Z,8.43
2019-04-16T06:03:46.790Z,9.33
2019-04-16T06:06:15.461Z,10.17
2019-04-16T06:08:44.104Z,9.40
2019-04-16T06:11:26.722Z,8.07
2019-04-16T06:13:47.432Z,8.53
2019-04-16T06:16:26.748Z,9.20
2019-04-16T06:19:12.988Z,9.40
2019-04-16T06:21:59.268Z,9.47
2019-04-16T06:24:32.379Z,8.93
2019-04-16T06:27:04.282Z,9.23
2019-04-16T06:29:50.453Z,9.57
2019-04-16T06:32:28.153Z,10.37
2019-04-16T06:34:58.788Z,9.23
2019-04-16T06:37:31.826Z,8.93
2019-04-16T06:40:18.135Z,10.00
2019-04-16T06:42:48.455Z,8.47
2019-04-16T06:45:18.726Z,8.17
2019-04-16T06:47:51.924Z,9.43
2019-04-16T06:50:31.080Z,8.53
2019-04-16T06:53:03.393Z,7.93
2019-04-16T06:55:36.116Z,9.90
2019-04-16T06:58:18.500Z,8.77
2019-04-16T07:01:06.768Z,10.13
2019-04-16T07:03:48.993Z,9.43
2019-04-16T07:06:36.337Z,9.00
2019-04-16T07:09:14.167Z,8.77
2019-04-16T07:11:54.164Z,9.70
2019-04-16T07:14:16.363Z,10.07
2019-04-16T07:16:45.180Z,9.23
2019-04-16T07:19:16.646Z,7.93
2019-04-16T07:21:48.648Z,9.17
2019-04-16T07:24:14.556Z,8.20
2019-04-16T07:26:46.397Z,7.77
2019-04-16T07:29:33.207Z,8.07
2019-04-16T07:32:18.731Z,8.60
2019-04-16T07:34:49.002Z,8.37
2019-04-16T07:37:19.291Z,8.10
2019-04-16T07:40:09.996Z,8.33
2019-04-16T07:42:57.966Z,8.57
2019-04-16T07:45:44.130Z,8.43
2019-04-16T07:48:32.862Z,6.47
2019-04-16T07:51:19.597Z,6.70
2019-04-16T07:53:49.871Z,6.47
2019-04-16T07:56:26.190Z,5.70
2019-04-16T07:59:00.235Z,6.07
2019-04-16T08:01:25.161Z,5.37
2019-04-16T08:03:57.452Z,6.50
2019-04-16T08:06:24.107Z,7.27
2019-04-16T08:08:53.890Z,6.43
2019-04-16T08:11:23.286Z,6.23
2019-04-16T08:13:51.928Z,6.97
2019-04-16T08:16:20.631Z,6.77
2019-04-16T08:18:50.366Z,6.83
2019-04-16T08:21:22.267Z,5.77
2019-04-16T08:23:52.883Z,6.60
2019-04-16T08:26:21.475Z,5.90
2019-04-16T08:28:50.052Z,6.43
2019-04-16T08:31:20.311Z,6.07
2019-04-16T08:33:48.989Z,6.53
2019-04-16T08:36:17.923Z,5.83
2019-04-16T08:38:46.548Z,5.93
2019-04-16T08:41:20.045Z,6.07
2019-04-16T08:43:45.640Z,7.17
2019-04-16T08:46:14.267Z,5.50
2019-04-16T08:48:42.924Z,6.00
2019-04-16T08:51:11.668Z,4.50
2019-04-16T08:53:40.259Z,7.10
2019-04-16T08:56:08.906Z,6.33
2019-04-16T08:58:38.546Z,5.60
2019-04-16T09:01:08.909Z,5.83
2019-04-16T09:03:37.517Z,5.77
2019-04-16T09:06:06.132Z,5.87
2019-04-16T09:08:45.367Z,5.47
2019-04-16T09:11:23.292Z,5.10
2019-04-16T09:13:48.150Z,5.23
2019-04-16T09:16:16.427Z,5.63
2019-04-16T09:18:55.871Z,6.37
2019-04-16T09:21:27.726Z,6.20
2019-04-16T09:24:12.825Z,5.30
2019-04-16T09:26:45.836Z,5.60
2019-04-16T09:29:16.114Z,4.57
2019-04-16T09:31:55.073Z,6.47
2019-04-16T09:34:24.442Z,5.57
2019-04-16T09:37:00.811Z,6.53
2019-04-16T09:39:40.361Z,6.80
2019-04-16T09:42:09.002Z,5.07
2019-04-16T09:44:37.625Z,5.97
2019-04-16T09:47:06.314Z,6.30
2019-04-16T09:49:37.670Z,5.90
2019-04-16T09:52:05.362Z,5.33
2019-04-16T09:54:34.028Z,5.90
2019-04-16T09:57:02.653Z,5.00
2019-04-16T09:59:32.925Z,5.10
2019-04-16T10:02:03.242Z,5.40
2019-04-16T10:04:31.868Z,5.37
2019-04-16T10:07:00.494Z,5.00
2019-04-16T10:09:29.179Z,6.20
2019-04-16T10:11:57.799Z,5.80
2019-04-16T10:14:26.429Z,5.33
2019-04-16T10:16:55.084Z,5.23
2019-04-16T10:19:23.859Z,5.50
2019-04-16T10:21:54.244Z,5.97
2019-04-16T10:24:24.558Z,4.83
2019-04-16T10:26:56.961Z,4.83
2019-04-16T10:29:25.166Z,4.07
2019-04-16T10:31:55.193Z,4.50
2019-04-16T10:34:23.893Z,4.53
2019-04-16T10:36:52.521Z,4.63
2019-04-16T10:39:28.806Z,3.67
2019-04-16T10:41:59.084Z,4.00
2019-04-16T10:44:29.344Z,3.93
2019-04-16T10:47:05.441Z,4.70
2019-04-16T10:49:51.955Z,4.30
2019-04-16T10:52:22.490Z,4.20
2019-04-16T10:57:51.081Z,4.70
2019-04-16T11:00:37.438Z,4.53
2019-04-16T11:03:10.732Z,4.27
2019-04-16T11:05:41.005Z,4.67
2019-04-16T11:08:10.601Z,3.63
2019-04-16T11:10:39.255Z,4.40
2019-04-16T11:13:09.493Z,3.70
2019-04-16T11:15:39.888Z,3.83
2019-04-16T11:18:08.575Z,3.73
2019-04-16T11:20:37.194Z,3.17
2019-04-16T11:23:07.599Z,3.10
2019-04-16T11:25:36.581Z,4.67
2019-04-16T11:28:05.217Z,3.07
2019-04-16T11:30:35.483Z,2.93
2019-04-16T11:33:04.125Z,4.10
2019-04-16T11:35:32.765Z,5.90
2019-04-16T11:38:01.382Z,4.60
2019-04-16T11:40:30.072Z,5.50
2019-04-16T11:42:58.708Z,4.53
2019-04-16T11:45:27.368Z,5.10
2019-04-16T11:47:56.025Z,3.73
2019-04-16T11:50:24.669Z,4.60
2019-04-16T11:52:57.233Z,3.90
2019-04-16T11:55:23.748Z,4.27
2019-04-16T11:57:52.513Z,3.93
2019-04-16T12:00:26.490Z,3.47
2019-04-16T12:03:13.042Z,3.40
2019-04-16T12:05:51.998Z,3.83
2019-04-16T12:08:22.299Z,2.80
2019-04-16T12:11:01.660Z,3.53
2019-04-16T12:13:31.915Z,2.93
2019-04-16T12:16:17.533Z,3.40
2019-04-16T12:18:47.793Z,2.80
2019-04-16T12:21:18.092Z,3.20
2019-04-16T12:23:48.317Z,2.50
2019-04-16T12:26:24.762Z,3.20
2019-04-16T12:28:55.036Z,2.87
2019-04-16T12:31:28.133Z,2.17
2019-04-16T12:34:07.710Z,3.00
2019-04-16T12:36:56.046Z,2.60
2019-04-16T12:39:36.037Z,2.43
2019-04-16T12:42:06.712Z,1.73
2019-04-16T12:44:45.325Z,2.50
2019-04-16T12:47:09.034Z,1.63
2019-04-16T12:49:55.799Z,1.90
2019-04-16T12:52:38.005Z,2.40
2019-04-16T12:55:24.534Z,1.80
2019-04-16T12:57:59.047Z,4.17
2019-04-16T13:00:47.286Z,2.83
2019-04-16T13:03:23.586Z,3.10
2019-04-16T13:06:11.763Z,2.40
2019-04-16T13:08:45.129Z,2.60
2019-04-16T13:11:15.391Z,2.87
2019-04-16T13:14:00.754Z,3.10
2019-04-16T13:16:47.386Z,3.00
2019-04-16T13:19:34.239Z,8.57
2019-04-16T13:22:04.336Z,4.97
2019-04-16T13:24:40.798Z,7.43
2019-04-16T13:27:27.791Z,3.10
2019-04-16T13:30:01.294Z,5.70
2019-04-16T13:32:27.961Z,2.40
2019-04-16T13:34:58.207Z,2.83
2019-04-16T13:37:30.327Z,12.77
2019-04-16T13:39:59.620Z,2.70
2019-04-16T13:42:28.799Z,1.63
2019-04-16T13:44:59.579Z,1.90
2019-04-16T13:47:29.367Z,2.03
2019-04-16T13:50:02.582Z,12.87
2019-04-16T13:52:30.041Z,2.20
2019-04-16T13:55:10.574Z,2.20
2019-04-16T13:57:44.178Z,2.40
2019-04-16T14:00:14.542Z,2.10
2019-04-16T14:02:47.811Z,2.70
2019-04-16T14:05:15.486Z,2.13
2019-04-16T14:07:44.110Z,2.40
2019-04-16T14:10:13.010Z,2.70
2019-04-16T14:12:42.770Z,2.57
2019-04-16T14:15:11.860Z,2.77
2019-04-16T14:17:52.178Z,2.40
2019-04-16T14:20:12.308Z,2.53
2019-04-16T14:22:41.692Z,2.90
2019-04-16T14:25:11.522Z,2.50
2019-04-16T14:27:40.196Z,3.03
2019-04-16T14:30:16.777Z,3.00
2019-04-16T14:32:45.439Z,2.83
2019-04-16T14:35:16.100Z,2.90
2019-04-16T14:37:44.733Z,8.97
2019-04-16T14:40:16.031Z,5.20
2019-04-16T14:42:44.662Z,3.40
2019-04-16T14:45:28.173Z,3.50
2019-04-16T14:47:56.897Z,3.67
2019-04-16T14:50:25.569Z,3.03
2019-04-16T14:52:54.226Z,3.40
2019-04-16T14:55:27.468Z,3.33
2019-04-16T14:58:03.472Z,3.50
2019-04-16T15:00:37.176Z,3.87
2019-04-16T15:03:07.442Z,4.63
2019-04-16T15:05:37.748Z,3.73
2019-04-16T15:08:14.059Z,3.50
2019-04-16T15:11:00.799Z,3.77
2019-04-16T15:13:31.100Z,4.07
2019-04-16T15:16:10.818Z,3.33
2019-04-16T15:18:33.358Z,3.43
2019-04-16T15:21:12.579Z,4.43
2019-04-16T15:23:42.938Z,7.07
2019-04-16T15:26:13.204Z,14.43
2019-04-16T15:28:43.477Z,26.70
2019-04-16T15:31:19.503Z,9.07
2019-04-16T15:33:55.761Z,5.70
2019-04-16T15:36:26.214Z,7.23
2019-04-16T15:38:59.075Z,13.10
2019-04-16T15:41:46.544Z,5.10
2019-04-16T15:44:22.834Z,4.93
2019-04-16T15:47:03.863Z,3.97
2019-04-16T15:49:34.136Z,4.67
2019-04-16T15:52:09.910Z,4.63
2019-04-16T15:54:44.929Z,4.70
2019-04-16T15:57:17.910Z,4.30
2019-04-16T15:59:54.219Z,4.17
2019-04-16T16:02:33.514Z,5.00
2019-04-16T16:05:03.820Z,4.60
2019-04-16T16:07:32.819Z,6.73
2019-04-16T16:10:12.388Z,7.27
2019-04-16T16:12:39.481Z,5.70
2019-04-16T16:15:09.825Z,8.20
2019-04-16T16:17:38.525Z,5.20
2019-04-16T16:20:10.236Z,4.90
2019-04-16T16:22:38.100Z,5.30
2019-04-16T16:25:08.009Z,4.37
2019-04-16T16:27:41.766Z,4.80
2019-04-16T16:30:07.687Z,4.87
2019-04-16T16:32:36.353Z,4.63
2019-04-16T16:35:06.585Z,4.57
2019-04-16T16:37:36.883Z,4.57
2019-04-16T16:40:06.836Z,15.10
2019-04-16T16:42:35.396Z,7.57
2019-04-16T16:45:04.641Z,8.63
2019-04-16T16:47:34.944Z,7.17
2019-04-16T16:50:03.767Z,21.80
2019-04-16T16:52:37.087Z,13.37
2019-04-16T16:55:09.117Z,13.93
2019-04-16T16:57:42.290Z,5.47
2019-04-16T17:00:24.040Z,6.63
2019-04-16T17:03:02.512Z,6.00
2019-04-16T17:05:32.840Z,6.83
2019-04-16T17:08:01.470Z,7.90
2019-04-16T17:10:30.186Z,8.97
2019-04-16T17:12:58.860Z,7.47
2019-04-16T17:15:27.555Z,6.23
2019-04-16T17:17:56.347Z,7.17
2019-04-16T17:20:25.046Z,6.30
2019-04-16T17:22:53.803Z,8.53
2019-04-16T17:25:35.491Z,7.23
2019-04-16T17:27:52.807Z,6.30
2019-04-16T17:30:21.618Z,5.83
2019-04-16T17:32:50.344Z,6.23
2019-04-16T17:35:19.002Z,4.77
2019-04-16T17:37:47.723Z,6.67
2019-04-16T17:40:18.010Z,9.57
2019-04-16T17:42:48.351Z,7.90
2019-04-16T17:45:18.602Z,5.80
2019-04-16T17:48:00.796Z,5.03
2019-04-16T17:50:39.584Z,9.90
2019-04-16T17:53:12.003Z,30.17
2019-04-16T17:55:43.265Z,18.40
2019-04-16T17:58:13.605Z,10.10
2019-04-16T18:00:46.927Z,15.77
2019-04-16T18:03:37.256Z,16.93
2019-04-16T18:06:07.408Z,38.70
2019-04-16T18:08:37.681Z,15.53
2019-04-16T18:11:10.948Z,12.30
2019-04-16T18:13:41.267Z,14.50
2019-04-16T18:16:11.587Z,12.57
2019-04-16T18:18:44.800Z,10.27
2019-04-16T18:21:18.160Z,12.73
2019-04-16T18:23:57.257Z,8.67
2019-04-16T18:26:33.243Z,8.97
2019-04-16T18:29:06.506Z,9.57
2019-04-16T18:31:42.769Z,7.23
2019-04-16T18:34:29.059Z,11.50
2019-04-16T18:37:14.224Z,9.30
2019-04-16T18:39:53.278Z,9.07
2019-04-16T18:42:23.587Z,8.57
2019-04-16T18:45:10.006Z,7.37
2019-04-16T18:47:40.327Z,7.37
2019-04-16T18:50:13.479Z,5.97
2019-04-16T18:52:42.121Z,8.37
2019-04-16T18:55:10.946Z,6.07
2019-04-16T18:57:39.577Z,6.30
2019-04-16T19:00:10.665Z,6.93
2019-04-16T19:02:42.078Z,7.60
2019-04-16T19:05:09.968Z,6.60
2019-04-16T19:07:38.681Z,5.40
2019-04-16T19:10:07.811Z,5.43
2019-04-16T19:12:36.531Z,5.93
2019-04-16T19:15:07.715Z,5.90
2019-04-16T19:17:37.779Z,6.83
2019-04-16T19:20:06.576Z,5.30
2019-04-16T19:22:35.284Z,6.53
2019-04-16T19:25:08.331Z,5.50
2019-04-16T19:27:35.284Z,6.57
2019-04-16T19:30:05.792Z,6.10
2019-04-16T19:32:36.056Z,5.70
2019-04-16T19:35:09.944Z,6.60
2019-04-16T19:37:35.399Z,5.57
2019-04-16T19:40:04.531Z,4.90
2019-04-16T19:42:33.238Z,5.47
2019-04-16T19:45:01.946Z,5.60
2019-04-16T19:47:30.684Z,5.83
2019-04-16T19:49:59.379Z,5.77
2019-04-16T19:52:29.533Z,5.10
2019-04-16T19:54:58.262Z,5.10
2019-04-16T19:57:27.044Z,5.57
2019-04-16T19:59:55.747Z,7.93
2019-04-16T20:02:25.351Z,4.57
2019-04-16T20:04:54.191Z,6.27
2019-04-16T20:07:22.852Z,6.20
2019-04-16T20:09:51.617Z,4.80
2019-04-16T20:12:20.304Z,5.00
2019-04-16T20:14:49.013Z,4.60
2019-04-16T20:17:17.749Z,4.80
2019-04-16T20:19:58.496Z,5.40
2019-04-16T20:22:31.174Z,5.07
2019-04-16T20:24:59.878Z,5.37
2019-04-16T20:27:28.623Z,5.53
2019-04-16T20:29:57.479Z,4.67
2019-04-16T20:32:27.514Z,5.07
2019-04-16T20:34:56.139Z,5.00
2019-04-16T20:37:24.820Z,5.03
2019-04-16T20:39:53.643Z,5.10
2019-04-16T20:42:22.267Z,4.63
2019-04-16T20:44:50.922Z,4.87
2019-04-16T20:47:19.474Z,5.20
2019-04-16T20:49:49.175Z,5.13
2019-04-16T20:52:18.526Z,4.30
2019-04-16T20:54:48.798Z,4.50
2019-04-16T20:57:17.432Z,5.03
2019-04-16T20:59:46.094Z,4.50
2019-04-16T21:02:14.794Z,4.60
2019-04-16T21:04:44.219Z,4.53
2019-04-16T21:07:15.369Z,5.13
2019-04-16T21:09:43.309Z,4.63
2019-04-16T21:12:13.189Z,5.00
2019-04-16T21:14:42.257Z,4.80
2019-04-16T21:17:10.888Z,4.57
2019-04-16T21:19:46.772Z,5.00
2019-04-16T21:22:17.371Z,4.57
2019-04-16T21:24:46.850Z,5.10
2019-04-16T21:27:15.571Z,4.73
2019-04-16T21:29:44.249Z,4.80
2019-04-16T21:32:23.617Z,3.97
2019-04-16T21:34:59.851Z,4.70
2019-04-16T21:37:32.006Z,4.60
2019-04-16T21:40:02.342Z,4.60
2019-04-16T21:42:34.414Z,4.80
2019-04-16T21:45:01.320Z,4.30
2019-04-16T21:47:29.978Z,4.30
2019-04-16T21:49:58.595Z,4.40
2019-04-16T21:52:27.227Z,4.73
2019-04-16T21:54:55.890Z,4.93
2019-04-16T21:57:24.510Z,4.27
2019-04-16T21:59:56.977Z,4.60
2019-04-16T22:02:25.283Z,5.10
2019-04-16T22:04:54.747Z,5.00
2019-04-16T22:07:24.587Z,4.70
2019-04-16T22:09:53.760Z,4.40
2019-04-16T22:12:22.393Z,3.80
2019-04-16T22:14:54.365Z,6.13
2019-04-16T22:17:21.383Z,4.83
2019-04-16T22:19:54.444Z,5.17
2019-04-16T22:22:20.355Z,4.70
2019-04-16T22:24:51.743Z,5.30
2019-04-16T22:27:19.350Z,5.27
2019-04-16T22:29:48.307Z,5.23
2019-04-16T22:32:19.023Z,4.70
2019-04-16T22:34:47.643Z,4.60
2019-04-16T22:37:16.275Z,6.13
2019-04-16T22:39:50.814Z,5.97
2019-04-16T22:42:18.549Z,4.37
2019-04-16T22:44:57.306Z,4.93
2019-04-16T22:47:30.477Z,5.87
2019-04-16T22:50:14.344Z,4.97
2019-04-16T22:52:30.427Z,5.00
2019-04-16T22:54:59.040Z,5.13
2019-04-16T22:57:30.871Z,4.80
2019-04-16T22:59:58.351Z,5.67
2019-04-16T23:02:28.581Z,4.87
2019-04-16T23:04:58.528Z,4.67
2019-04-16T23:07:27.587Z,4.83
2019-04-16T23:09:56.206Z,5.53
2019-04-16T23:12:28.037Z,5.10
2019-04-16T23:14:55.222Z,5.30
2019-04-16T23:17:25.474Z,4.23
2019-04-16T23:19:54.596Z,5.40
2019-04-16T23:22:24.135Z,4.90
2019-04-16T23:24:55.123Z,5.23
2019-04-16T23:27:23.092Z,4.97
2019-04-16T23:29:51.747Z,5.30
2019-04-16T23:32:20.433Z,4.63
2019-04-16T23:34:49.056Z,4.97
2019-04-16T23:37:22.999Z,4.67
2019-04-16T23:39:47.975Z,4.50
2019-04-16T23:42:19.052Z,5.37
2019-04-16T23:44:48.608Z,4.90
2019-04-16T23:47:34.831Z,4.83
2019-04-16T23:50:08.149Z,5.17
2019-04-16T23:52:38.426Z,4.37
2019-04-16T23:55:17.457Z,5.80
2019-04-16T23:58:04.667Z,4.77
